This is the latest recevied weather packets stored in our database for station/object KD4VIF. If no packets are shown the sender has not sent any weather packets the latest 10 day(s).
| Time | Temp. | Humidity | Pressure | Rain* | Wind** | Luminosity | Snow |
|---|---|---|---|---|---|---|---|
| 1777721008 | 12.22° C | 100% | 1010.7 hPa | 3.56 mm | 0 m/s | - | - |
| 1777720287 | 12.22° C | 100% | 1010.9 hPa | 1.52 mm | 0 m/s | - | - |
| 1777719986 | 12.22° C | 100% | 1010.7 hPa | 1.52 mm | 0 m/s | - | - |
| 1777719808 | 12.78° C | 100% | 1010.9 hPa | 1.02 mm | 0 m/s | - | - |
| 1777719206 | 12.22° C | 100% | 1010.9 hPa | 0 mm | 0 m/s | - | - |
| 1777718908 | 12.22° C | 100% | 1011 hPa | 0 mm | 0 m/s | - | - |
| 1777718607 | 12.22° C | 100% | 1011 hPa | 0 mm | 0 m/s | - | - |
| 1777718007 | 12.22° C | 100% | 1011 hPa | 0 mm | 0 m/s | - | - |
| 1777717947 | 12.22° C | 100% | 1011 hPa | 0 mm | 0 m/s | - | - |
| 1777717647 | 12.22° C | 100% | 1011 hPa | 0 mm | 0 m/s | - | - |
| 1777717347 | 12.22° C | 100% | 1011 hPa | 0 mm | 0 m/s | - | - |
| 1777716808 | 12.22° C | 100% | 1010.9 hPa | 0 mm | 0 m/s | - | - |
| 1777715607 | 12.22° C | 100% | 1010.8 hPa | 1.52 mm | 0 m/s | - | - |
| 1777715307 | 12.78° C | 100% | 1010.8 hPa | 1.52 mm | 0 m/s | - | - |
| 1777715186 | 12.22° C | 100% | 1010.7 hPa | 1.02 mm | 0 m/s | - | - |
| 1777714886 | 12.22° C | 100% | 1010.8 hPa | 1.02 mm | 0 m/s | - | - |
| 1777714587 | 12.78° C | 100% | 1010.8 hPa | 1.02 mm | 0 m/s | - | - |
| 1777714226 | 12.22° C | 100% | 1010.9 hPa | 0.51 mm | 0 m/s | - | - |
| 1777713926 | 12.22° C | 100% | 1010.8 hPa | 0.51 mm | 0 m/s | - | - |
| 1777713626 | 12.78° C | 100% | 1010.9 hPa | 0.51 mm | 0 m/s | - | - |
| 1777713326 | 12.78° C | 100% | 1010.8 hPa | 0.51 mm | 0 m/s | - | - |
| 1777713026 | 12.78° C | 100% | 1010.8 hPa | 0.51 mm | 0 m/s | - | - |
| 1777712727 | 12.78° C | 100% | 1010.9 hPa | 0 mm | 0 m/s | - | - |
| 1777712426 | 12.78° C | 100% | 1010.9 hPa | 0 mm | 0 m/s | - | - |
| 1777711826 | 12.78° C | 100% | 1011 hPa | 0 mm | 0 m/s | - | - |
* Rain latest hour (hover to see other rain measurements)
** Current wind speed in m/s (hover to see current wind gust speed)